createdAt,value
2023-01-08T00:00:36.617Z,93.6787109375
2023-01-08T00:01:36.416Z,93.77734375
2023-01-08T00:02:36.285Z,93.494140625
2023-01-08T00:03:39.606Z,93.189453125
2023-01-08T00:04:36.456Z,92.9267578125
2023-01-08T00:05:36.629Z,92.740234375
2023-01-08T00:06:36.356Z,92.357421875
2023-01-08T00:07:36.349Z,91.8271484375
2023-01-08T00:08:36.453Z,91.7841796875
2023-01-08T00:09:36.388Z,91.53125
2023-01-08T00:10:36.673Z,91.32421875
2023-01-08T00:11:36.443Z,91.357421875
2023-01-08T00:12:36.457Z,91.169921875
2023-01-08T00:13:36.394Z,90.828125
2023-01-08T00:14:39.300Z,90.818359375
2023-01-08T00:15:36.610Z,90.5185546875
2023-01-08T00:16:36.513Z,90.3857421875
2023-01-08T00:17:36.228Z,90.3759765625
2023-01-08T00:18:36.281Z,90.369140625
2023-01-08T00:19:36.419Z,90.4541015625
2023-01-08T00:20:36.615Z,90.56640625
2023-01-08T00:21:36.358Z,90.716796875
2023-01-08T00:22:36.345Z,90.611328125
2023-01-08T00:23:36.348Z,90.81640625
2023-01-08T00:24:36.316Z,90.92578125
2023-01-08T00:25:36.603Z,91.0439453125
2023-01-08T00:26:36.360Z,91.1767578125
2023-01-08T00:27:36.396Z,91.3984375
2023-01-08T00:28:36.361Z,91.2822265625
2023-01-08T00:29:36.354Z,90.958984375
2023-01-08T00:30:41.503Z,90.787109375
2023-01-08T00:31:36.405Z,90.77734375
2023-01-08T00:32:36.236Z,90.638671875
2023-01-08T00:33:36.352Z,90.5244140625
2023-01-08T00:34:36.248Z,90.615234375
2023-01-08T00:35:36.732Z,90.47265625
2023-01-08T00:36:36.351Z,90.365234375
2023-01-08T00:37:36.466Z,90.123046875
2023-01-08T00:38:36.392Z,90.083984375
2023-01-08T00:39:36.352Z,90.017578125
2023-01-08T00:40:36.679Z,90.1357421875
2023-01-08T00:41:36.339Z,90.224609375
2023-01-08T00:42:36.277Z,90.3037109375
2023-01-08T00:43:36.397Z,90.4375
2023-01-08T00:44:36.365Z,90.3203125
2023-01-08T00:45:36.417Z,90.3447265625
2023-01-08T00:46:39.333Z,90.501953125
2023-01-08T00:47:36.429Z,90.3984375
2023-01-08T00:48:36.227Z,90.3984375
2023-01-08T00:49:36.365Z,90.1748046875
2023-01-08T00:50:36.669Z,90.2646484375
2023-01-08T00:51:36.356Z,90.599609375
2023-01-08T00:52:36.367Z,90.859375
2023-01-08T00:53:36.356Z,91.0771484375
2023-01-08T00:54:36.417Z,91.263671875
2023-01-08T00:55:36.600Z,91.1787109375
2023-01-08T00:56:36.412Z,91.0517578125
2023-01-08T00:57:39.220Z,91.134765625
2023-01-08T00:58:36.321Z,90.9462890625
2023-01-08T00:59:36.341Z,90.466796875
2023-01-08T01:00:36.626Z,90.216796875
2023-01-08T01:01:36.542Z,90.3017578125
2023-01-08T01:02:36.345Z,90.154296875
2023-01-08T01:03:36.401Z,90.0859375
2023-01-08T01:04:36.428Z,90.1279296875
2023-01-08T01:05:36.601Z,90.3857421875
2023-01-08T01:06:36.448Z,90.720703125
2023-01-08T01:07:36.421Z,90.669921875
2023-01-08T01:08:39.221Z,90.259765625
2023-01-08T01:09:36.474Z,90.33203125
2023-01-08T01:10:36.735Z,90.1875
2023-01-08T01:11:36.305Z,89.96875
2023-01-08T01:12:36.264Z,89.8173828125
2023-01-08T01:13:36.475Z,89.615234375
2023-01-08T01:14:36.405Z,89.5341796875
2023-01-08T01:15:36.770Z,89.2861328125
2023-01-08T01:16:36.431Z,88.7705078125
2023-01-08T01:17:36.330Z,88.4765625
2023-01-08T01:18:36.234Z,88.150390625
2023-01-08T01:19:36.357Z,88.060546875
2023-01-08T01:20:36.681Z,87.5302734375
2023-01-08T01:21:36.442Z,87.3994140625
2023-01-08T01:22:36.397Z,87.078125
2023-01-08T01:23:36.376Z,86.9375
2023-01-08T01:24:39.325Z,86.62890625
2023-01-08T01:25:36.595Z,86.447265625
2023-01-08T01:26:36.335Z,86.185546875
2023-01-08T01:27:36.337Z,85.6533203125
2023-01-08T01:28:36.340Z,85.48046875
2023-01-08T01:29:36.401Z,85.3720703125
2023-01-08T01:30:36.627Z,85.1064453125
2023-01-08T01:31:36.415Z,85.1962890625
2023-01-08T01:32:36.340Z,85.095703125
2023-01-08T01:33:36.307Z,84.8447265625
2023-01-08T01:34:36.371Z,84.650390625
2023-01-08T01:35:39.725Z,84.5087890625
2023-01-08T01:36:36.419Z,84.5771484375
2023-01-08T01:37:36.441Z,84.19140625
2023-01-08T01:38:36.417Z,83.7548828125
2023-01-08T01:39:36.301Z,83.814453125
2023-01-08T01:40:36.606Z,83.9072265625
2023-01-08T01:41:39.219Z,83.7763671875
2023-01-08T01:42:36.385Z,83.7080078125
2023-01-08T01:43:36.346Z,83.71875
2023-01-08T01:44:36.358Z,83.6728515625
2023-01-08T01:45:36.704Z,83.341796875
2023-01-08T01:46:36.426Z,83.345703125
2023-01-08T01:47:36.389Z,83.2861328125
2023-01-08T01:48:36.294Z,83.2509765625
2023-01-08T01:49:36.364Z,83.111328125
2023-01-08T01:50:36.732Z,83.21484375
2023-01-08T01:51:36.311Z,83.21484375
2023-01-08T01:52:39.311Z,83.1708984375
2023-01-08T01:53:36.470Z,83.029296875
2023-01-08T01:54:36.498Z,82.771484375
2023-01-08T01:55:36.707Z,82.7265625
2023-01-08T01:56:36.418Z,82.728515625
2023-01-08T01:57:36.268Z,82.685546875
2023-01-08T01:58:36.360Z,82.48828125
2023-01-08T01:59:36.245Z,82.6884765625
2023-01-08T02:00:36.719Z,82.599609375
2023-01-08T02:01:36.497Z,82.48828125
2023-01-08T02:02:36.421Z,82.6123046875
2023-01-08T02:03:39.421Z,82.6015625
2023-01-08T02:04:36.354Z,82.5791015625
2023-01-08T02:05:36.745Z,82.333984375
2023-01-08T02:06:36.253Z,82.2109375
2023-01-08T02:07:36.253Z,82.1552734375
2023-01-08T02:08:36.399Z,82.4931640625
2023-01-08T02:09:36.404Z,82.3759765625
2023-01-08T02:10:36.607Z,82.265625
2023-01-08T02:11:36.454Z,82.19921875
2023-01-08T02:12:36.435Z,82.3515625
2023-01-08T02:13:36.347Z,82.6337890625
2023-01-08T02:14:36.246Z,82.2529296875
2023-01-08T02:15:36.600Z,82.7294921875
2023-01-08T02:16:36.336Z,82.7197265625
2023-01-08T02:17:36.355Z,82.8740234375
2023-01-08T02:18:36.427Z,82.9853515625
2023-01-08T02:19:39.212Z,83.150390625
2023-01-08T02:20:36.599Z,83.0302734375
2023-01-08T02:21:36.304Z,83.0244140625
2023-01-08T02:22:36.249Z,83.2978515625
2023-01-08T02:23:36.321Z,83.486328125
2023-01-08T02:24:36.245Z,83.3427734375
2023-01-08T02:25:36.596Z,83.3837890625
2023-01-08T02:26:36.438Z,83.4716796875
2023-01-08T02:27:36.323Z,83.86328125
2023-01-08T02:28:36.352Z,83.6767578125
2023-01-08T02:29:36.468Z,83.5244140625
2023-01-08T02:30:36.659Z,83.634765625
2023-01-08T02:31:36.385Z,84.234375
2023-01-08T02:32:36.409Z,84.3349609375
2023-01-08T02:33:36.366Z,84.8525390625
2023-01-08T02:34:36.408Z,85.748046875
2023-01-08T02:35:39.592Z,86.1982421875
2023-01-08T02:36:36.429Z,86.8115234375
2023-01-08T02:37:36.441Z,87.3662109375
2023-01-08T02:38:36.331Z,88.1474609375
2023-01-08T02:39:36.339Z,88.71875
2023-01-08T02:40:36.607Z,90.5439453125
2023-01-08T02:41:36.360Z,91.552734375
2023-01-08T02:42:36.387Z,92.720703125
2023-01-08T02:43:36.431Z,94.5029296875
2023-01-08T02:44:36.367Z,96.126953125
2023-01-08T02:45:36.599Z,97.166015625
2023-01-08T02:46:39.325Z,98.2841796875
2023-01-08T02:47:36.328Z,99.7265625
2023-01-08T02:48:36.361Z,100
2023-01-08T02:49:36.447Z,100
2023-01-08T02:50:36.667Z,100
2023-01-08T02:51:36.406Z,100
2023-01-08T02:52:36.258Z,100
2023-01-08T02:53:36.388Z,100
2023-01-08T02:54:36.425Z,100
2023-01-08T02:55:36.596Z,100
2023-01-08T02:56:36.344Z,100
2023-01-08T02:57:39.354Z,100
2023-01-08T02:58:36.446Z,100
2023-01-08T02:59:36.461Z,100
2023-01-08T03:00:36.605Z,100
2023-01-08T03:01:36.599Z,100
2023-01-08T03:02:36.415Z,100
2023-01-08T03:03:36.365Z,100
2023-01-08T03:04:36.427Z,100
2023-01-08T03:05:36.599Z,100
2023-01-08T03:06:36.442Z,100
2023-01-08T03:07:36.418Z,100
2023-01-08T03:08:39.312Z,100
2023-01-08T03:09:36.326Z,100
2023-01-08T03:10:36.776Z,100
2023-01-08T03:11:36.412Z,100
2023-01-08T03:12:36.241Z,100
2023-01-08T03:13:36.363Z,100
2023-01-08T03:14:36.345Z,100
2023-01-08T03:15:36.708Z,100
2023-01-08T03:16:36.557Z,100
2023-01-08T03:17:36.324Z,100
2023-01-08T03:18:36.394Z,100
2023-01-08T03:19:39.300Z,100
2023-01-08T03:20:36.789Z,100
2023-01-08T03:21:36.429Z,100
2023-01-08T03:22:36.354Z,100
2023-01-08T03:23:36.336Z,100
2023-01-08T03:24:36.359Z,100
2023-01-08T03:25:36.596Z,100
2023-01-08T03:26:36.446Z,100
2023-01-08T03:27:36.329Z,100
2023-01-08T03:28:36.253Z,100
2023-01-08T03:29:36.366Z,100
2023-01-08T03:30:41.529Z,100
2023-01-08T03:31:36.344Z,100
2023-01-08T03:32:36.330Z,100
2023-01-08T03:33:36.229Z,100
2023-01-08T03:34:36.240Z,100
2023-01-08T03:35:36.888Z,100
2023-01-08T03:36:36.314Z,100
2023-01-08T03:37:36.369Z,100
2023-01-08T03:38:36.219Z,100
2023-01-08T03:39:36.354Z,100
2023-01-08T03:40:36.618Z,100
2023-01-08T03:41:39.191Z,100
2023-01-08T03:42:36.291Z,100
2023-01-08T03:43:36.373Z,100
2023-01-08T03:44:36.419Z,100
2023-01-08T03:45:36.684Z,100
2023-01-08T03:46:36.442Z,100
2023-01-08T03:47:36.233Z,100
2023-01-08T03:48:36.379Z,100
2023-01-08T03:49:36.438Z,100
2023-01-08T03:50:36.717Z,100
2023-01-08T03:51:36.302Z,100
2023-01-08T03:52:39.240Z,100
2023-01-08T03:53:36.424Z,100
2023-01-08T03:54:36.356Z,100
2023-01-08T03:55:36.615Z,100
2023-01-08T03:56:36.465Z,100
2023-01-08T03:57:36.360Z,100
2023-01-08T03:58:36.405Z,100
2023-01-08T03:59:36.229Z,100
2023-01-08T04:00:36.669Z,100
2023-01-08T04:01:36.633Z,100
2023-01-08T04:02:36.368Z,100
2023-01-08T04:03:39.176Z,100
2023-01-08T04:04:36.452Z,100
2023-01-08T04:05:36.731Z,100
2023-01-08T04:06:36.326Z,100
2023-01-08T04:07:36.232Z,100
2023-01-08T04:08:36.331Z,100
2023-01-08T04:09:36.362Z,100
2023-01-08T04:10:36.596Z,100
2023-01-08T04:11:36.404Z,100
2023-01-08T04:12:36.363Z,100
2023-01-08T04:13:36.323Z,100
2023-01-08T04:14:36.356Z,100
2023-01-08T04:15:36.803Z,100
2023-01-08T04:16:36.319Z,100
2023-01-08T04:17:36.341Z,100
2023-01-08T04:18:36.413Z,100
2023-01-08T04:19:36.318Z,100
2023-01-08T04:20:36.604Z,100
2023-01-08T04:21:36.240Z,100
2023-01-08T04:22:36.392Z,100
2023-01-08T04:23:36.418Z,100
2023-01-08T04:24:39.379Z,100
2023-01-08T04:25:36.599Z,100
2023-01-08T04:26:36.459Z,100
2023-01-08T04:27:36.433Z,100
2023-01-08T04:28:36.439Z,100
2023-01-08T04:29:36.361Z,100
2023-01-08T04:30:36.610Z,100
2023-01-08T04:31:36.402Z,100
2023-01-08T04:32:36.412Z,100
2023-01-08T04:33:36.262Z,100
2023-01-08T04:34:36.339Z,100
2023-01-08T04:35:39.613Z,100
2023-01-08T04:36:36.351Z,100
2023-01-08T04:37:36.250Z,100
2023-01-08T04:38:36.266Z,100
2023-01-08T04:39:36.340Z,100
2023-01-08T04:40:36.593Z,100
2023-01-08T04:41:36.387Z,100
2023-01-08T04:42:36.436Z,100
2023-01-08T04:43:36.369Z,100
2023-01-08T04:44:36.239Z,100
2023-01-08T04:45:36.375Z,100
2023-01-08T04:46:39.389Z,100
2023-01-08T04:47:36.465Z,100
2023-01-08T04:48:36.382Z,100
2023-01-08T04:49:36.255Z,100
2023-01-08T04:50:36.676Z,100
2023-01-08T04:51:36.353Z,100
2023-01-08T04:52:36.254Z,100
2023-01-08T04:53:36.388Z,100
2023-01-08T04:54:36.424Z,100
2023-01-08T04:55:38.440Z,100
2023-01-08T04:56:36.317Z,100
2023-01-08T04:57:39.182Z,100
2023-01-08T04:58:36.464Z,100
2023-01-08T04:59:36.232Z,100
2023-01-08T05:00:36.686Z,100
2023-01-08T05:01:36.482Z,100
2023-01-08T05:02:36.644Z,100
2023-01-08T05:03:36.361Z,100
2023-01-08T05:04:36.379Z,100
2023-01-08T05:05:36.701Z,100
2023-01-08T05:06:36.462Z,100
2023-01-08T05:07:36.395Z,100
2023-01-08T05:08:39.223Z,100
2023-01-08T05:09:36.470Z,100
2023-01-08T05:10:36.588Z,100
2023-01-08T05:11:36.311Z,100
2023-01-08T05:12:36.244Z,100
2023-01-08T05:13:36.295Z,100
2023-01-08T05:14:36.376Z,100
2023-01-08T05:15:36.615Z,100
2023-01-08T05:16:36.319Z,100
2023-01-08T05:17:36.355Z,100
2023-01-08T05:18:36.437Z,100
2023-01-08T05:19:38.246Z,100
2023-01-08T05:20:36.690Z,100
2023-01-08T05:21:36.438Z,100
2023-01-08T05:22:36.443Z,100
2023-01-08T05:23:36.353Z,100
2023-01-08T05:24:36.330Z,100
2023-01-08T05:25:36.601Z,100
2023-01-08T05:26:36.447Z,100
2023-01-08T05:27:36.414Z,100
2023-01-08T05:28:36.358Z,100
2023-01-08T05:29:39.299Z,100
2023-01-08T05:30:36.607Z,100
2023-01-08T05:31:36.407Z,100
2023-01-08T05:32:36.430Z,100
2023-01-08T05:33:36.273Z,100
2023-01-08T05:34:36.277Z,100
2023-01-08T05:35:36.602Z,100
2023-01-08T05:36:36.243Z,100
2023-01-08T05:37:36.328Z,100
2023-01-08T05:38:36.256Z,100
2023-01-08T05:39:36.411Z,100
2023-01-08T05:40:39.594Z,100
2023-01-08T05:41:36.392Z,100
2023-01-08T05:42:36.354Z,100
2023-01-08T05:43:36.369Z,100
2023-01-08T05:44:36.337Z,100
2023-01-08T05:45:36.619Z,100
2023-01-08T05:46:39.241Z,100
2023-01-08T05:47:36.326Z,100
2023-01-08T05:48:36.246Z,100
2023-01-08T05:49:36.346Z,100
2023-01-08T05:50:36.676Z,100
2023-01-08T05:51:36.354Z,100
2023-01-08T05:52:36.235Z,100
2023-01-08T05:53:36.388Z,100
2023-01-08T05:54:36.416Z,100
2023-01-08T05:55:36.612Z,100
2023-01-08T05:56:36.454Z,100
2023-01-08T05:57:39.351Z,100
2023-01-08T05:58:36.423Z,100
2023-01-08T05:59:36.349Z,100
2023-01-08T06:00:36.764Z,100
2023-01-08T06:01:36.354Z,100
2023-01-08T06:02:36.408Z,100
2023-01-08T06:03:36.226Z,100
2023-01-08T06:04:36.315Z,100
2023-01-08T06:05:36.708Z,100
2023-01-08T06:06:36.348Z,100
2023-01-08T06:07:36.349Z,100
2023-01-08T06:08:36.359Z,100
2023-01-08T06:09:36.391Z,100
2023-01-08T06:10:36.610Z,100
2023-01-08T06:11:36.394Z,100
2023-01-08T06:12:36.373Z,100
2023-01-08T06:13:39.353Z,100
2023-01-08T06:14:36.450Z,100
2023-01-08T06:15:36.646Z,100
2023-01-08T06:16:36.448Z,100
2023-01-08T06:17:36.378Z,100
2023-01-08T06:18:36.236Z,100
2023-01-08T06:19:36.349Z,100
2023-01-08T06:20:36.605Z,100
2023-01-08T06:21:36.458Z,100
2023-01-08T06:22:36.365Z,100
2023-01-08T06:23:36.367Z,100
2023-01-08T06:24:39.336Z,100
2023-01-08T06:25:36.604Z,100
2023-01-08T06:26:36.365Z,100
2023-01-08T06:27:36.333Z,100
2023-01-08T06:28:36.257Z,100
2023-01-08T06:29:36.354Z,100
2023-01-08T06:30:42.260Z,100
2023-01-08T06:31:36.492Z,100
2023-01-08T06:32:36.418Z,100
2023-01-08T06:33:36.378Z,100
2023-01-08T06:34:36.275Z,100
2023-01-08T06:35:36.753Z,100
2023-01-08T06:36:36.361Z,100
2023-01-08T06:37:36.385Z,100
2023-01-08T06:38:36.362Z,100
2023-01-08T06:39:36.235Z,100
2023-01-08T06:40:36.674Z,100
2023-01-08T06:41:39.358Z,100
2023-01-08T06:42:36.437Z,100
2023-01-08T06:43:36.694Z,100
2023-01-08T06:44:36.263Z,100
2023-01-08T06:45:36.693Z,100
2023-01-08T06:46:36.472Z,100
2023-01-08T06:47:39.234Z,100
2023-01-08T06:48:36.331Z,100
2023-01-08T06:49:36.387Z,100
2023-01-08T06:50:36.613Z,100
2023-01-08T06:51:36.385Z,100
2023-01-08T06:52:36.333Z,100
2023-01-08T06:53:36.365Z,100
2023-01-08T06:54:36.375Z,100
2023-01-08T06:55:36.699Z,100
2023-01-08T06:56:48.997Z,100
2023-01-08T06:57:36.332Z,100
2023-01-08T06:58:39.334Z,100
2023-01-08T06:59:36.451Z,100
2023-01-08T07:00:36.604Z,100
2023-01-08T07:01:36.479Z,100
2023-01-08T07:02:36.730Z,100
2023-01-08T07:03:36.490Z,100
2023-01-08T07:04:36.341Z,100
2023-01-08T07:05:36.679Z,100
2023-01-08T07:06:36.333Z,100
2023-01-08T07:07:36.359Z,100
2023-01-08T07:08:36.442Z,100
2023-01-08T07:09:39.297Z,100
2023-01-08T07:10:36.612Z,100
2023-01-08T07:11:36.407Z,100
2023-01-08T07:12:36.341Z,100
2023-01-08T07:13:36.375Z,100
2023-01-08T07:14:36.427Z,100
2023-01-08T07:15:36.721Z,100
2023-01-08T07:16:36.301Z,100
2023-01-08T07:17:36.320Z,100
2023-01-08T07:18:36.282Z,100
2023-01-08T07:19:36.483Z,100
2023-01-08T07:20:36.623Z,100
2023-01-08T07:21:36.354Z,100
2023-01-08T07:22:36.352Z,100
2023-01-08T07:23:36.292Z,100
2023-01-08T07:24:36.323Z,100
2023-01-08T07:25:42.185Z,100
2023-01-08T07:26:36.363Z,100
2023-01-08T07:27:36.328Z,100
2023-01-08T07:28:36.268Z,100
2023-01-08T07:29:36.390Z,100
2023-01-08T07:30:36.604Z,100
2023-01-08T07:31:36.321Z,100
2023-01-08T07:32:36.282Z,100
2023-01-08T07:33:36.440Z,100
2023-01-08T07:34:36.415Z,100
2023-01-08T07:35:36.693Z,100
2023-01-08T07:36:39.324Z,100
2023-01-08T07:37:36.436Z,100
2023-01-08T07:38:36.310Z,100
2023-01-08T07:39:36.383Z,100
2023-01-08T07:40:39.194Z,100
2023-01-08T07:41:36.452Z,100
2023-01-08T07:42:36.301Z,100
2023-01-08T07:43:36.345Z,100
2023-01-08T07:44:36.328Z,100
2023-01-08T07:45:36.602Z,100
2023-01-08T07:46:36.562Z,100
2023-01-08T07:47:39.301Z,100
2023-01-08T07:48:36.298Z,100
2023-01-08T07:49:36.375Z,100
2023-01-08T07:50:36.614Z,100
2023-01-08T07:51:36.456Z,100
2023-01-08T07:52:36.393Z,100
2023-01-08T07:53:36.243Z,100
2023-01-08T07:54:36.386Z,100
2023-01-08T07:55:36.597Z,100
2023-01-08T07:56:36.426Z,100
2023-01-08T07:57:36.344Z,100
2023-01-08T07:58:39.373Z,100
2023-01-08T07:59:36.397Z,100
2023-01-08T08:00:36.331Z,100
2023-01-08T08:01:36.360Z,100
2023-01-08T08:02:36.446Z,100
2023-01-08T08:03:36.333Z,100
2023-01-08T08:04:36.408Z,100
2023-01-08T08:05:36.684Z,100
2023-01-08T08:06:36.358Z,100
2023-01-08T08:07:36.240Z,100
2023-01-08T08:08:36.235Z,100
2023-01-08T08:09:36.298Z,100
2023-01-08T08:10:36.604Z,100
2023-01-08T08:11:36.396Z,100
2023-01-08T08:12:36.344Z,100
2023-01-08T08:13:36.457Z,100
2023-01-08T08:14:39.327Z,100
2023-01-08T08:15:36.603Z,100
2023-01-08T08:16:36.405Z,100
2023-01-08T08:17:36.343Z,100
2023-01-08T08:18:36.335Z,100
2023-01-08T08:19:36.252Z,100
2023-01-08T08:20:36.623Z,100
2023-01-08T08:21:36.228Z,100
2023-01-08T08:22:36.327Z,100
2023-01-08T08:23:36.870Z,100
2023-01-08T08:24:36.440Z,100
2023-01-08T08:25:42.181Z,100
2023-01-08T08:26:36.460Z,100
2023-01-08T08:27:36.452Z,100
2023-01-08T08:28:36.349Z,100
2023-01-08T08:29:36.385Z,100
2023-01-08T08:30:36.611Z,100
2023-01-08T08:31:36.437Z,100
2023-01-08T08:32:36.237Z,100
2023-01-08T08:33:36.275Z,100
2023-01-08T08:34:36.352Z,100
2023-01-08T08:35:36.886Z,100
2023-01-08T08:36:39.270Z,100
2023-01-08T08:37:36.442Z,100
2023-01-08T08:38:36.339Z,100
2023-01-08T08:39:36.398Z,100
2023-01-08T08:40:36.684Z,100
2023-01-08T08:41:36.369Z,100
2023-01-08T08:42:36.349Z,100
2023-01-08T08:43:36.373Z,100
2023-01-08T08:44:36.339Z,100
2023-01-08T08:45:36.719Z,100
2023-01-08T08:46:36.473Z,100
2023-01-08T08:47:39.331Z,100
2023-01-08T08:48:36.488Z,100
2023-01-08T08:49:36.449Z,100
2023-01-08T08:50:36.391Z,100
2023-01-08T08:51:36.257Z,100
2023-01-08T08:52:36.366Z,100
2023-01-08T08:53:36.395Z,100
2023-01-08T08:54:36.282Z,100
2023-01-08T08:55:36.683Z,100
2023-01-08T08:56:36.471Z,100
2023-01-08T08:57:36.427Z,100
2023-01-08T08:58:39.181Z,100
2023-01-08T08:59:36.233Z,100
2023-01-08T09:00:36.672Z,100
2023-01-08T09:01:36.519Z,100
2023-01-08T09:02:36.508Z,100
2023-01-08T09:03:36.370Z,100
2023-01-08T09:04:36.355Z,100
2023-01-08T09:05:36.682Z,100
2023-01-08T09:06:36.417Z,100
2023-01-08T09:07:36.295Z,100
2023-01-08T09:08:36.366Z,100
2023-01-08T09:09:39.303Z,100
2023-01-08T09:10:36.605Z,100
2023-01-08T09:11:36.388Z,100
2023-01-08T09:12:36.460Z,100
2023-01-08T09:13:36.355Z,100
2023-01-08T09:14:36.398Z,100
2023-01-08T09:15:36.612Z,100
2023-01-08T09:16:36.488Z,100
2023-01-08T09:17:36.433Z,100
2023-01-08T09:18:36.335Z,100
2023-01-08T09:19:36.347Z,100
2023-01-08T09:20:39.592Z,100
2023-01-08T09:21:36.449Z,100
2023-01-08T09:22:36.328Z,100
2023-01-08T09:23:36.245Z,100
2023-01-08T09:24:36.232Z,100
2023-01-08T09:25:36.702Z,100
2023-01-08T09:26:36.334Z,100
2023-01-08T09:27:36.245Z,100
2023-01-08T09:28:36.257Z,100
2023-01-08T09:29:36.331Z,100
2023-01-08T09:30:36.363Z,100
2023-01-08T09:31:36.418Z,100
2023-01-08T09:32:36.356Z,100
2023-01-08T09:33:36.381Z,100
2023-01-08T09:34:36.449Z,100
2023-01-08T09:35:36.755Z,100
2023-01-08T09:36:39.233Z,100
2023-01-08T09:37:36.430Z,100
2023-01-08T09:38:36.435Z,100
2023-01-08T09:39:36.287Z,100
2023-01-08T09:40:36.620Z,100
2023-01-08T09:41:36.221Z,100
2023-01-08T09:42:36.367Z,100
2023-01-08T09:43:36.329Z,100
2023-01-08T09:44:36.468Z,100
2023-01-08T09:45:36.470Z,100
2023-01-08T09:46:36.522Z,100
2023-01-08T09:47:39.357Z,100
2023-01-08T09:48:36.437Z,100
2023-01-08T09:49:36.468Z,100
2023-01-08T09:50:36.626Z,100
2023-01-08T09:51:36.486Z,100
2023-01-08T09:52:36.399Z,100
2023-01-08T09:53:36.275Z,100
2023-01-08T09:54:36.227Z,100
2023-01-08T09:55:36.729Z,100
2023-01-08T09:56:36.412Z,100
2023-01-08T09:57:36.372Z,100
2023-01-08T09:58:39.220Z,100
2023-01-08T09:59:36.458Z,100
2023-01-08T10:00:36.722Z,100
2023-01-08T10:01:36.543Z,100
2023-01-08T10:02:36.475Z,100
2023-01-08T10:03:36.358Z,100
2023-01-08T10:04:36.368Z,100
2023-01-08T10:05:36.250Z,100
2023-01-08T10:06:36.372Z,100
2023-01-08T10:07:36.393Z,100
2023-01-08T10:08:36.332Z,100
2023-01-08T10:09:39.242Z,100
2023-01-08T10:10:36.615Z,100
2023-01-08T10:11:36.396Z,100
2023-01-08T10:12:36.236Z,100
2023-01-08T10:13:36.390Z,100
2023-01-08T10:14:36.426Z,100
2023-01-08T10:15:36.692Z,100
2023-01-08T10:16:36.438Z,100
2023-01-08T10:17:36.328Z,100
2023-01-08T10:18:36.371Z,100
2023-01-08T10:19:36.389Z,100
2023-01-08T10:20:36.622Z,100
2023-01-08T10:21:36.323Z,100
2023-01-08T10:22:36.346Z,100
2023-01-08T10:23:36.335Z,100
2023-01-08T10:24:36.240Z,100
2023-01-08T10:25:42.261Z,100
2023-01-08T10:26:36.428Z,100
2023-01-08T10:27:36.358Z,100
2023-01-08T10:28:36.345Z,100
2023-01-08T10:29:36.299Z,100
2023-01-08T10:30:36.390Z,100
2023-01-08T10:31:36.381Z,100
2023-01-08T10:32:36.392Z,100
2023-01-08T10:33:36.345Z,100
2023-01-08T10:34:36.357Z,100
2023-01-08T10:35:36.387Z,100
2023-01-08T10:36:39.371Z,100
2023-01-08T10:37:36.431Z,100
2023-01-08T10:38:36.305Z,100
2023-01-08T10:39:36.343Z,100
2023-01-08T10:40:36.416Z,100
2023-01-08T10:41:36.422Z,100
2023-01-08T10:42:39.306Z,100
2023-01-08T10:43:36.336Z,100
2023-01-08T10:44:36.373Z,100
2023-01-08T10:45:36.649Z,100
2023-01-08T10:46:36.408Z,100
2023-01-08T10:47:36.304Z,100
2023-01-08T10:48:36.362Z,100
2023-01-08T10:49:36.379Z,100
2023-01-08T10:50:36.603Z,100
2023-01-08T10:51:36.327Z,100
2023-01-08T10:52:36.246Z,100
2023-01-08T10:53:39.352Z,100
2023-01-08T10:54:36.459Z,100
2023-01-08T10:55:36.350Z,100
2023-01-08T10:56:36.401Z,100
2023-01-08T10:57:36.355Z,100
2023-01-08T10:58:36.329Z,100
2023-01-08T10:59:36.334Z,100
2023-01-08T11:00:36.730Z,100
2023-01-08T11:01:36.454Z,100
2023-01-08T11:02:38.660Z,100
2023-01-08T11:03:36.356Z,100
2023-01-08T11:04:39.358Z,100
2023-01-08T11:05:36.615Z,100
2023-01-08T11:06:36.429Z,100
2023-01-08T11:07:36.433Z,100
2023-01-08T11:08:36.761Z,100
2023-01-08T11:09:36.537Z,100
2023-01-08T11:10:36.361Z,100
2023-01-08T11:11:36.250Z,100
2023-01-08T11:12:36.452Z,100
2023-01-08T11:13:36.403Z,100
2023-01-08T11:14:36.337Z,100
2023-01-08T11:15:40.883Z,100
2023-01-08T11:16:36.447Z,100
2023-01-08T11:17:36.361Z,100
2023-01-08T11:18:36.422Z,100
2023-01-08T11:19:36.410Z,100
2023-01-08T11:20:36.687Z,99.744140625
2023-01-08T11:21:36.290Z,99.4150390625
2023-01-08T11:22:36.338Z,100
2023-01-08T11:23:36.387Z,99.0234375
2023-01-08T11:24:36.430Z,99.5546875
2023-01-08T11:25:36.604Z,99.34765625
2023-01-08T11:26:39.214Z,98.6240234375
2023-01-08T11:27:36.441Z,96.54296875
2023-01-08T11:28:36.331Z,97.1767578125
2023-01-08T11:29:36.247Z,96.884765625
2023-01-08T11:30:36.673Z,97.4248046875
2023-01-08T11:31:36.463Z,97.5302734375
2023-01-08T11:32:36.230Z,97.994140625
2023-01-08T11:33:36.374Z,98.7138671875
2023-01-08T11:34:36.355Z,100
2023-01-08T11:35:36.422Z,100
2023-01-08T11:36:36.581Z,100
2023-01-08T11:37:39.237Z,100
2023-01-08T11:38:36.345Z,100
2023-01-08T11:39:36.413Z,100
2023-01-08T11:40:36.329Z,100
2023-01-08T11:41:36.374Z,100
2023-01-08T11:42:36.382Z,100
2023-01-08T11:43:36.322Z,100
2023-01-08T11:44:36.406Z,100
2023-01-08T11:45:36.608Z,100
2023-01-08T11:46:36.390Z,100
2023-01-08T11:47:36.267Z,100
2023-01-08T11:48:39.331Z,100
2023-01-08T11:49:36.456Z,100
2023-01-08T11:50:36.427Z,100
2023-01-08T11:51:36.422Z,100
2023-01-08T11:52:36.412Z,100
2023-01-08T11:53:36.299Z,100
2023-01-08T11:54:36.390Z,100
2023-01-08T11:55:36.368Z,100
2023-01-08T11:56:36.278Z,100
2023-01-08T11:57:36.372Z,100
2023-01-08T11:58:36.397Z,100
2023-01-08T11:59:39.327Z,100
2023-01-08T12:00:36.413Z,99.9189453125
2023-01-08T12:01:36.400Z,99.51953125
2023-01-08T12:02:36.452Z,99.15234375
2023-01-08T12:03:36.576Z,98.91796875
2023-01-08T12:04:36.397Z,97.99609375
2023-01-08T12:05:36.612Z,96.9267578125
2023-01-08T12:06:37.032Z,97.4619140625
2023-01-08T12:07:36.254Z,97.21875
2023-01-08T12:08:36.334Z,97.2314453125
2023-01-08T12:09:36.436Z,96.71484375
2023-01-08T12:10:39.334Z,96.412109375
2023-01-08T12:11:36.426Z,96.44140625
2023-01-08T12:12:36.413Z,96.466796875
2023-01-08T12:13:36.343Z,97.0048828125
2023-01-08T12:14:36.326Z,96.4912109375
2023-01-08T12:15:36.608Z,96.552734375
2023-01-08T12:16:36.375Z,95.916015625
2023-01-08T12:17:36.372Z,95.9638671875
2023-01-08T12:18:36.309Z,94.95703125
2023-01-08T12:19:36.367Z,95.4140625
2023-01-08T12:20:36.373Z,95.3876953125
2023-01-08T12:21:39.316Z,94.46875
2023-01-08T12:22:36.412Z,94.6494140625
2023-01-08T12:23:36.428Z,94.3408203125
2023-01-08T12:24:36.518Z,93.951171875
2023-01-08T12:25:36.371Z,92.44140625
2023-01-08T12:26:36.374Z,91.005859375
2023-01-08T12:27:55.928Z,90.54296875
2023-01-08T12:28:36.369Z,89.6630859375
2023-01-08T12:29:36.424Z,89.3525390625
2023-01-08T12:30:36.331Z,89.3798828125
2023-01-08T12:31:36.658Z,88.96875
2023-01-08T12:32:39.288Z,89.158203125
2023-01-08T12:33:36.338Z,88.59765625
2023-01-08T12:34:36.360Z,87.9111328125
2023-01-08T12:35:36.411Z,88.142578125
2023-01-08T12:36:36.408Z,88.2255859375
2023-01-08T12:37:36.426Z,87.8642578125
2023-01-08T12:38:36.377Z,86.75